Time;durP1;ratioP1;P1;durP2;ratioP2;P2;SDS_P1;SDS_P2;PMS_P1;PMS_P2;Temp;Humidity;BMP_temperature;BMP_pressure;BME280_temperature;BME280_humidity;BME280_pressure;Samples;Min_cycle;Max_cycle;Signal;HPM_P1;HPM_P2
2023/05/03 00:00:19;;;;;;;5.10;3.43;;;5.70;1.00;;;;;;5072808;28;20194;-66
2023/05/03 00:02:45;;;;;;;3.43;3.13;;;5.70;1.00;;;;;;5074847;28;20175;-66
2023/05/03 00:05:13;;;;;;;7.70;3.43;;;5.70;1.00;;;;;;5074232;28;20401;-65
2023/05/03 00:07:41;;;;;;;4.40;3.47;;;5.60;1.00;;;;;;5074016;28;20408;-65
2023/05/03 00:10:08;;;;;;;6.13;4.10;;;5.60;1.00;;;;;;5072953;28;20422;-66
2023/05/03 00:12:33;;;;;;;5.07;3.67;;;5.50;1.00;;;;;;5074265;28;20531;-65
2023/05/03 00:14:59;;;;;;;3.40;3.03;;;5.50;1.00;;;;;;5073004;28;20439;-63
2023/05/03 00:17:25;;;;;;;10.27;4.00;;;5.50;1.00;;;;;;5056039;28;20204;-62
2023/05/03 00:19:54;;;;;;;3.47;3.00;;;5.50;1.00;;;;;;5073994;28;20166;-64
2023/05/03 00:22:21;;;;;;;4.10;3.70;;;5.50;1.00;;;;;;5073567;28;20205;-65
2023/05/03 00:24:48;;;;;;;9.67;3.80;;;5.40;1.00;;;;;;5074053;28;20403;-63
2023/05/03 00:27:14;;;;;;;3.77;3.40;;;5.40;1.00;;;;;;5073967;28;20435;-63
2023/05/03 00:29:39;;;;;;;5.67;3.60;;;5.40;1.00;;;;;;5073011;28;20424;-63
2023/05/03 00:32:06;;;;;;;5.90;3.47;;;5.40;1.00;;;;;;5072388;28;20428;-65
2023/05/03 00:34:32;;;;;;;3.73;2.87;;;5.40;1.00;;;;;;5073672;28;20166;-63
2023/05/03 00:36:57;;;;;;;3.97;3.67;;;5.40;1.00;;;;;;5073865;28;20455;-64
2023/05/03 00:39:23;;;;;;;5.90;4.73;;;5.40;1.00;;;;;;5073698;28;20162;-63
2023/05/03 00:41:49;;;;;;;5.43;5.07;;;5.40;1.00;;;;;;5073190;28;20169;-63
2023/05/03 00:44:15;;;;;;;5.23;4.50;;;5.40;1.00;;;;;;5073013;28;20208;-63
2023/05/03 00:46:40;;;;;;;5.70;4.07;;;5.40;1.00;;;;;;5073608;28;20183;-66
2023/05/03 00:49:06;;;;;;;4.70;4.30;;;5.40;1.00;;;;;;5072897;28;21107;-66
2023/05/03 00:51:32;;;;;;;3.70;3.40;;;5.40;1.00;;;;;;5072866;28;20190;-63
2023/05/03 00:53:58;;;;;;;4.50;4.10;;;5.40;1.00;;;;;;5073594;28;20936;-64
2023/05/03 00:56:25;;;;;;;5.57;3.43;;;5.40;1.00;;;;;;5073541;28;20458;-63
2023/05/03 00:58:51;;;;;;;4.83;4.23;;;5.40;1.00;;;;;;5073213;28;20436;-66
2023/05/03 01:01:17;;;;;;;5.17;3.67;;;5.40;1.00;;;;;;5072752;28;20416;-65
2023/05/03 01:03:45;;;;;;;9.97;4.60;;;5.30;1.00;;;;;;5073676;28;20819;-63
2023/05/03 01:06:22;;;;;;;6.87;3.80;;;5.30;1.00;;;;;;5055451;28;20866;-63
2023/05/03 01:08:59;;;;;;;4.50;3.80;;;5.30;1.00;;;;;;5072401;28;20892;-63
2023/05/03 01:11:33;;;;;;;7.17;4.07;;;5.30;1.00;;;;;;5072541;28;20400;-66
2023/05/03 01:14:26;;;;;;;5.27;4.17;;;5.30;1.00;;;;;;5058292;28;20463;-66
2023/05/03 01:16:57;;;;;;;9.53;4.40;;;5.30;1.00;;;;;;5045541;28;20935;-63
2023/05/03 01:19:32;;;;;;;7.37;4.00;;;5.30;1.00;;;;;;5054482;28;20916;-62
2023/05/03 01:22:30;;;;;;;5.00;4.00;;;5.30;1.00;;;;;;5059180;28;20849;-64
2023/05/03 01:25:11;;;;;;;4.73;3.73;;;5.30;1.00;;;;;;5033549;28;20778;-64
2023/05/03 01:27:38;;;;;;;10.00;4.27;;;5.20;1.00;;;;;;5074896;28;20513;-64
2023/05/03 01:30:06;;;;;;;5.23;4.43;;;5.20;1.00;;;;;;5079515;28;20408;-62
2023/05/03 01:33:02;;;;;;;5.80;3.73;;;5.20;1.00;;;;;;5062020;28;20808;-62
2023/05/03 01:35:43;;;;;;;5.37;3.93;;;5.20;1.00;;;;;;5079822;28;20450;-63
2023/05/03 01:38:10;;;;;;;4.60;4.30;;;5.10;1.00;;;;;;5079889;28;20511;-64
2023/05/03 01:40:42;;;;;;;4.60;3.80;;;5.10;1.00;;;;;;5078039;28;20765;-63
2023/05/03 01:43:11;;;;;;;6.60;4.63;;;5.10;1.00;;;;;;5079634;28;20514;-66
2023/05/03 01:45:36;;;;;;;9.63;4.60;;;5.10;1.00;;;;;;5079132;28;20400;-64
2023/05/03 01:48:07;;;;;;;6.53;4.30;;;5.10;1.00;;;;;;5079745;28;20478;-64
2023/05/03 01:50:33;;;;;;;4.17;3.77;;;5.10;1.00;;;;;;5078846;28;20181;-64
2023/05/03 01:52:59;;;;;;;12.03;4.23;;;5.00;1.00;;;;;;5079838;28;20562;-64
2023/05/03 01:55:24;;;;;;;13.40;5.33;;;5.00;1.00;;;;;;5078756;28;20294;-64
2023/05/03 01:57:50;;;;;;;8.43;3.80;;;5.00;1.00;;;;;;5077921;28;20609;-64
2023/05/03 02:00:16;;;;;;;9.80;4.07;;;5.00;1.00;;;;;;5078915;28;20176;-63
2023/05/03 02:02:41;;;;;;;5.07;4.73;;;5.00;1.00;;;;;;5079627;28;20193;-63
2023/05/03 02:05:08;;;;;;;3.83;3.23;;;5.10;1.00;;;;;;5078682;28;20186;-63
2023/05/03 02:07:34;;;;;;;5.03;4.50;;;5.10;1.00;;;;;;5079582;28;20166;-63
2023/05/03 02:10:00;;;;;;;8.17;3.97;;;5.10;1.00;;;;;;5079095;28;20435;-63
2023/05/03 02:12:25;;;;;;;5.53;3.40;;;5.10;1.00;;;;;;5078898;28;20685;-63
2023/05/03 02:14:51;;;;;;;4.80;3.50;;;5.00;1.00;;;;;;5079671;28;20253;-64
2023/05/03 02:17:17;;;;;;;5.70;3.50;;;5.10;1.00;;;;;;5062061;28;20216;-63
2023/05/03 02:19:43;;;;;;;9.33;4.43;;;5.10;1.00;;;;;;5079516;28;20214;-65
2023/05/03 02:22:09;;;;;;;5.70;4.07;;;5.00;1.00;;;;;;5078706;28;20423;-63
2023/05/03 02:24:35;;;;;;;17.70;4.63;;;5.00;1.00;;;;;;5077430;28;20634;-63
2023/05/03 02:27:03;;;;;;;8.17;4.40;;;5.00;1.00;;;;;;5079418;28;20162;-62
2023/05/03 02:29:30;;;;;;;5.63;4.53;;;5.00;1.00;;;;;;5079407;28;21238;-64
2023/05/03 02:31:56;;;;;;;4.57;4.20;;;5.00;1.00;;;;;;5075923;28;20538;-62
2023/05/03 02:34:22;;;;;;;5.60;3.90;;;4.90;1.00;;;;;;5076049;28;20423;-63
2023/05/03 02:36:48;;;;;;;11.57;4.30;;;4.90;1.00;;;;;;5075435;28;20470;-64
2023/05/03 02:39:13;;;;;;;3.97;3.57;;;4.90;1.00;;;;;;5076360;28;20406;-63
2023/05/03 02:41:39;;;;;;;4.93;3.93;;;4.80;1.00;;;;;;5074122;28;20163;-64
2023/05/03 02:44:05;;;;;;;13.50;4.10;;;4.80;1.00;;;;;;5076137;28;20602;-64
2023/05/03 02:46:30;;;;;;;4.60;3.67;;;4.70;1.00;;;;;;5075963;28;20232;-66
2023/05/03 02:48:56;;;;;;;6.50;4.10;;;4.70;1.00;;;;;;5076027;28;20179;-65
2023/05/03 02:51:23;;;;;;;11.57;4.27;;;4.60;1.00;;;;;;5074079;28;20516;-63
2023/05/03 02:53:48;;;;;;;3.40;3.10;;;4.60;1.00;;;;;;5075821;28;20191;-63
2023/05/03 02:56:14;;;;;;;6.23;4.13;;;4.60;1.00;;;;;;5057632;28;20444;-62
2023/05/03 02:58:40;;;;;;;6.23;3.60;;;4.60;1.00;;;;;;5075620;28;20221;-65
2023/05/03 03:01:05;;;;;;;7.60;3.70;;;4.50;1.00;;;;;;5073923;28;20562;-63
2023/05/03 03:03:31;;;;;;;7.77;3.50;;;4.50;1.00;;;;;;5075662;28;20201;-63
2023/05/03 03:05:57;;;;;;;9.53;4.20;;;4.50;1.00;;;;;;5075235;28;20205;-63
2023/05/03 03:08:22;;;;;;;7.70;3.93;;;4.40;1.00;;;;;;5075244;28;20174;-63
2023/05/03 03:10:48;;;;;;;9.40;4.30;;;4.40;1.00;;;;;;5074823;28;20185;-63
2023/05/03 03:13:14;;;;;;;6.87;4.37;;;4.40;1.00;;;;;;5075343;28;20215;-64
2023/05/03 03:15:40;;;;;;;10.60;4.60;;;4.40;1.00;;;;;;5075377;28;20439;-63
2023/05/03 03:18:06;;;;;;;5.40;4.70;;;4.40;1.00;;;;;;5075382;28;20510;-63
2023/05/03 03:20:31;;;;;;;6.50;4.40;;;4.40;1.00;;;;;;5063733;28;20171;-62
2023/05/03 03:22:57;;;;;;;5.57;4.30;;;4.40;1.00;;;;;;5055528;28;20263;-62
2023/05/03 03:25:23;;;;;;;5.67;4.00;;;4.40;1.00;;;;;;5055293;28;20236;-63
2023/05/03 03:27:48;;;;;;;4.67;4.27;;;4.40;1.00;;;;;;5055336;28;20162;-63
2023/05/03 03:30:14;;;;;;;8.27;4.47;;;4.40;1.00;;;;;;5054218;28;20685;-63
2023/05/03 03:32:40;;;;;;;3.43;3.13;;;4.40;1.00;;;;;;5055264;28;20926;-63
2023/05/03 03:35:07;;;;;;;4.60;3.80;;;4.40;1.00;;;;;;5064345;28;20185;-63
2023/05/03 03:37:33;;;;;;;8.30;4.63;;;4.30;1.00;;;;;;5057242;28;20286;-63
2023/05/03 03:39:58;;;;;;;7.20;4.73;;;4.30;1.00;;;;;;5074434;28;20872;-63
2023/05/03 03:42:24;;;;;;;9.67;3.70;;;4.30;1.00;;;;;;5074219;28;20185;-62
2023/05/03 03:44:50;;;;;;;10.00;4.50;;;4.30;1.00;;;;;;5074965;28;20402;-63
2023/05/03 03:47:16;;;;;;;9.43;4.23;;;4.30;1.00;;;;;;5074916;28;20168;-63
2023/05/03 03:49:42;;;;;;;6.47;4.40;;;4.30;1.00;;;;;;5074664;28;20446;-64
2023/05/03 03:52:07;;;;;;;4.13;3.80;;;4.20;1.00;;;;;;5074597;28;20202;-62
2023/05/03 03:54:35;;;;;;;5.63;4.20;;;4.10;1.00;;;;;;5056474;28;20184;-63
2023/05/03 03:57:04;;;;;;;4.23;3.73;;;4.10;1.00;;;;;;5055899;28;20273;-63
2023/05/03 03:59:30;;;;;;;8.00;4.00;;;4.10;1.00;;;;;;5074543;28;20857;-64
2023/05/03 04:01:55;;;;;;;12.70;4.53;;;4.00;1.00;;;;;;5073753;28;20454;-63
2023/05/03 04:04:21;;;;;;;6.53;4.40;;;4.00;1.00;;;;;;5075645;28;20306;-63
2023/05/03 04:06:47;;;;;;;7.90;4.50;;;4.00;1.00;;;;;;5074724;28;20218;-63
2023/05/03 04:09:13;;;;;;;5.03;4.63;;;4.00;1.00;;;;;;5074415;28;20172;-62
2023/05/03 04:11:39;;;;;;;5.03;4.63;;;4.00;1.00;;;;;;5073578;28;20158;-63
2023/05/03 04:14:05;;;;;;;9.87;4.50;;;4.00;1.00;;;;;;5073231;28;20540;-63
2023/05/03 04:16:30;;;;;;;8.53;5.00;;;3.90;1.00;;;;;;5072667;28;20892;-63
2023/05/03 04:18:56;;;;;;;10.50;3.93;;;3.90;1.00;;;;;;5074861;28;20164;-64
2023/05/03 04:21:22;;;;;;;9.23;4.40;;;3.90;1.00;;;;;;5073189;28;20241;-63
2023/05/03 04:23:47;;;;;;;9.00;4.83;;;3.90;1.00;;;;;;5074825;28;20189;-63
2023/05/03 04:26:13;;;;;;;6.70;4.43;;;3.90;1.00;;;;;;5074061;28;20163;-64
2023/05/03 04:28:39;;;;;;;16.70;4.67;;;3.90;1.00;;;;;;5073546;28;20169;-63
2023/05/03 04:31:05;;;;;;;4.90;4.40;;;4.00;1.00;;;;;;5071197;28;20176;-63
2023/05/03 04:33:30;;;;;;;5.50;3.93;;;4.00;1.00;;;;;;5073135;28;20430;-64
2023/05/03 04:35:56;;;;;;;6.80;4.60;;;4.10;1.00;;;;;;5074977;28;20194;-64
2023/05/03 04:38:22;;;;;;;9.43;4.07;;;4.10;1.00;;;;;;5074537;28;20165;-61
2023/05/03 04:40:48;;;;;;;28.73;16.43;;;4.10;1.00;;;;;;5072698;28;20410;-62
2023/05/03 04:43:14;;;;;;;9.10;5.97;;;4.10;1.00;;;;;;5073923;28;20931;-62
2023/05/03 04:45:40;;;;;;;4.60;4.07;;;4.20;1.00;;;;;;5074093;28;20408;-62
2023/05/03 04:48:06;;;;;;;5.87;5.37;;;4.20;1.00;;;;;;5053804;28;20418;-63
2023/05/03 04:50:35;;;;;;;5.07;4.20;;;4.20;1.00;;;;;;5072356;28;20410;-63
2023/05/03 04:53:01;;;;;;;4.93;4.47;;;4.30;1.00;;;;;;5071046;28;20484;-64
2023/05/03 04:55:26;;;;;;;4.10;3.70;;;4.40;1.00;;;;;;5074048;28;20406;-63
2023/05/03 04:57:55;;;;;;;7.70;4.20;;;4.50;1.00;;;;;;5074145;28;20418;-63
2023/05/03 05:00:21;;;;;;;5.10;4.43;;;4.60;1.00;;;;;;5074651;28;20176;-63
2023/05/03 05:02:47;;;;;;;8.00;4.50;;;4.70;1.00;;;;;;5074103;28;20813;-64
2023/05/03 05:05:12;;;;;;;7.60;4.10;;;4.80;2.70;;;;;;5072468;28;20396;-64
2023/05/03 05:07:38;;;;;;;7.10;4.43;;;4.80;2.60;;;;;;5073534;28;20154;-63
2023/05/03 05:10:05;;;;;;;7.30;4.30;;;4.90;8.00;;;;;;5072703;28;20177;-65
2023/05/03 05:12:30;;;;;;;6.70;4.23;;;5.00;8.30;;;;;;5073473;28;20686;-66
2023/05/03 05:14:56;;;;;;;4.77;4.20;;;5.10;9.20;;;;;;5072108;28;20432;-63
2023/05/03 05:17:24;;;;;;;8.80;4.23;;;5.20;12.60;;;;;;5073157;28;20566;-66
2023/05/03 05:19:50;;;;;;;4.90;3.40;;;5.30;13.70;;;;;;5073156;28;20222;-66
2023/05/03 05:22:15;;;;;;;8.37;4.43;;;5.30;11.50;;;;;;5072144;28;20432;-66
2023/05/03 05:24:41;;;;;;;6.03;4.53;;;5.40;12.30;;;;;;5073321;28;20174;-66
2023/05/03 05:27:07;;;;;;;6.93;3.77;;;5.50;14.20;;;;;;5073211;28;20266;-65
2023/05/03 05:29:32;;;;;;;8.07;5.80;;;5.60;10.20;;;;;;5072356;28;20186;-65
2023/05/03 05:32:00;;;;;;;8.50;4.00;;;5.60;1.00;;;;;;5072277;28;20174;-66
2023/05/03 05:34:26;;;;;;;5.07;4.57;;;5.70;1.00;;;;;;5073260;28;20170;-66
2023/05/03 05:36:51;;;;;;;6.83;4.33;;;5.80;1.00;;;;;;5072726;28;20452;-66
2023/05/03 05:39:17;;;;;;;7.93;4.77;;;5.80;1.00;;;;;;5072736;28;20167;-66
2023/05/03 05:41:43;;;;;;;4.33;4.03;;;5.80;1.00;;;;;;5072522;28;20401;-66
2023/05/03 05:44:08;;;;;;;4.40;3.10;;;6.00;1.00;;;;;;5072440;28;20193;-66
2023/05/03 05:46:34;;;;;;;8.40;3.90;;;6.10;1.00;;;;;;5072343;28;20186;-65
2023/05/03 05:49:00;;;;;;;4.70;4.30;;;6.10;1.00;;;;;;5073202;28;20581;-66
2023/05/03 05:51:26;;;;;;;7.43;4.53;;;6.20;1.00;;;;;;5072219;28;20174;-65
2023/05/03 05:53:52;;;;;;;5.10;3.80;;;6.30;1.00;;;;;;5073463;28;20611;-66
2023/05/03 05:56:18;;;;;;;6.93;3.43;;;6.40;1.00;;;;;;5070208;28;20539;-65
2023/05/03 05:58:43;;;;;;;4.20;3.90;;;6.40;1.00;;;;;;5073056;28;20175;-65
2023/05/03 06:01:09;;;;;;;13.37;4.80;;;6.60;1.00;;;;;;5072301;28;20262;-66
2023/05/03 06:03:35;;;;;;;19.07;4.80;;;6.70;1.00;;;;;;5073739;28;20183;-66
2023/05/03 06:06:00;;;;;;;4.90;4.30;;;6.90;1.00;;;;;;5073366;28;20224;-65
2023/05/03 06:08:26;;;;;;;4.00;3.60;;;6.90;1.00;;;;;;5076598;28;20177;-66
2023/05/03 06:10:52;;;;;;;6.17;3.60;;;7.00;1.00;;;;;;5074838;28;20206;-65
2023/05/03 06:13:18;;;;;;;9.90;3.40;;;7.00;1.00;;;;;;5076280;28;20213;-65
2023/05/03 06:15:43;;;;;;;4.70;3.10;;;7.00;1.00;;;;;;5076171;28;20190;-65
2023/05/03 06:18:09;;;;;;;3.53;3.23;;;7.10;1.00;;;;;;5076552;28;20170;-65
2023/05/03 06:20:35;;;;;;;8.20;3.17;;;7.20;1.00;;;;;;5075289;28;20612;-65
2023/05/03 06:23:01;;;;;;;4.37;3.40;;;7.20;1.00;;;;;;5076722;28;20225;-65
2023/05/03 06:25:26;;;;;;;9.60;3.10;;;7.30;1.00;;;;;;5075616;28;20239;-66
2023/05/03 06:27:52;;;;;;;10.00;3.70;;;7.40;1.00;;;;;;5076416;28;20400;-66
2023/05/03 06:30:18;;;;;;;7.63;2.90;;;7.50;1.00;;;;;;5075396;28;20182;-66
2023/05/03 06:32:46;;;;;;;9.07;3.43;;;7.50;1.00;;;;;;5075889;28;20234;-65
2023/05/03 06:35:12;;;;;;;4.63;2.90;;;7.60;1.00;;;;;;5076306;28;20179;-66
2023/05/03 06:37:38;;;;;;;4.83;2.57;;;7.70;1.00;;;;;;5076238;28;20809;-67
2023/05/03 06:40:05;;;;;;;8.43;3.30;;;7.70;1.00;;;;;;5075750;28;20403;-66
2023/05/03 06:42:31;;;;;;;7.40;2.30;;;7.80;1.00;;;;;;5076273;28;20195;-65
2023/05/03 06:44:57;;;;;;;3.73;2.60;;;7.90;1.00;;;;;;5075391;28;20800;-66
2023/05/03 06:47:22;;;;;;;14.30;3.37;;;8.00;1.00;;;;;;5075785;28;20443;-65
2023/05/03 06:49:48;;;;;;;3.80;3.30;;;8.10;1.00;;;;;;5075283;28;20178;-66
2023/05/03 06:52:15;;;;;;;4.13;2.40;;;8.20;1.00;;;;;;5074443;28;20233;-66
2023/05/03 06:54:40;;;;;;;5.73;2.87;;;8.20;1.00;;;;;;5075885;28;20174;-66
2023/05/03 06:57:06;;;;;;;6.70;3.27;;;8.30;1.00;;;;;;5075814;28;20455;-67
2023/05/03 06:59:32;;;;;;;5.20;3.03;;;8.40;1.00;;;;;;5075677;28;20545;-66
2023/05/03 07:01:58;;;;;;;7.10;3.20;;;8.40;1.00;;;;;;5074948;28;20214;-66
2023/05/03 07:04:23;;;;;;;6.90;3.10;;;8.40;1.00;;;;;;5076091;28;20172;-65
2023/05/03 07:06:49;;;;;;;7.27;3.30;;;8.50;1.00;;;;;;5056655;28;20748;-67
2023/05/03 07:09:16;;;;;;;7.80;2.63;;;8.70;1.00;;;;;;5057095;28;20177;-66
2023/05/03 07:11:57;;;;;;;7.03;3.30;;;8.80;1.00;;;;;;5074558;28;20172;-66
2023/05/03 07:14:26;;;;;;;8.07;3.30;;;9.00;1.00;;;;;;5075255;28;20434;-67
2023/05/03 07:16:53;;;;;;;10.90;3.03;;;9.20;1.00;;;;;;5075440;28;20458;-67
2023/05/03 07:19:21;;;;;;;6.00;3.57;;;9.30;1.00;;;;;;5072904;28;20453;-67
2023/05/03 07:21:47;;;;;;;5.53;2.60;;;9.50;1.00;;;;;;5054526;28;20170;-66
2023/05/03 07:24:12;;;;;;;5.37;2.80;;;9.50;1.00;;;;;;5055339;28;20869;-67
2023/05/03 07:26:38;;;;;;;5.00;3.43;;;9.50;1.00;;;;;;5054830;28;20181;-67
2023/05/03 07:29:04;;;;;;;8.40;3.07;;;9.40;1.00;;;;;;5054916;28;20170;-67
2023/05/03 07:31:30;;;;;;;6.20;3.83;;;9.50;1.00;;;;;;5054323;28;20178;-66
2023/05/03 07:33:56;;;;;;;3.67;2.93;;;9.60;1.00;;;;;;5055159;28;20890;-66
2023/05/03 07:36:22;;;;;;;3.40;3.10;;;9.80;1.00;;;;;;5057204;28;20442;-66
2023/05/03 07:38:48;;;;;;;7.60;2.63;;;10.00;1.00;;;;;;5074990;28;20181;-66
2023/05/03 07:41:14;;;;;;;3.47;2.60;;;10.10;1.00;;;;;;5074193;28;20389;-66
2023/05/03 07:43:39;;;;;;;16.33;2.90;;;10.10;1.00;;;;;;5075023;28;20182;-67
2023/05/03 07:46:05;;;;;;;9.50;2.77;;;10.40;1.00;;;;;;5074129;28;20882;-67
2023/05/03 07:48:31;;;;;;;9.20;3.90;;;10.60;1.00;;;;;;5074405;28;20670;-67
2023/05/03 07:50:57;;;;;;;2.23;2.00;;;10.60;1.00;;;;;;5074414;28;20229;-66
2023/05/03 07:53:23;;;;;;;6.30;2.80;;;10.70;1.00;;;;;;5074698;28;20547;-66
2023/05/03 07:55:52;;;;;;;7.30;3.10;;;10.80;1.00;;;;;;5074727;28;20190;-66
2023/05/03 07:58:17;;;;;;;8.33;3.70;;;10.80;1.00;;;;;;5074417;28;20888;-66
2023/05/03 08:00:43;;;;;;;6.57;3.13;;;10.70;1.00;;;;;;5073713;28;20396;-67
2023/05/03 08:03:09;;;;;;;5.70;2.63;;;10.50;1.00;;;;;;5073989;28;20213;-66
2023/05/03 08:05:35;;;;;;;3.27;3.07;;;10.50;1.00;;;;;;5074503;28;20249;-68
2023/05/03 08:08:02;;;;;;;4.80;2.77;;;10.50;1.00;;;;;;5074476;28;20633;-66
2023/05/03 08:10:29;;;;;;;4.70;2.10;;;10.40;1.00;;;;;;5073377;28;20876;-67
2023/05/03 08:12:54;;;;;;;6.97;3.00;;;10.40;1.00;;;;;;5073975;28;21108;-67
2023/05/03 08:15:20;;;;;;;6.03;2.37;;;10.30;1.00;;;;;;5073433;28;20490;-67
2023/05/03 08:18:12;;;;;;;4.73;2.10;;;10.50;1.00;;;;;;5074412;28;20194;-66
2023/05/03 08:20:38;;;;;;;4.97;2.10;;;10.40;1.00;;;;;;5046868;28;20218;-67
2023/05/03 08:23:04;;;;;;;5.47;3.10;;;10.30;1.00;;;;;;5073663;28;20423;-67
2023/05/03 08:25:29;;;;;;;5.10;2.27;;;10.30;1.00;;;;;;5073982;28;20916;-66
2023/05/03 08:27:55;;;;;;;3.57;2.17;;;10.40;1.00;;;;;;5074086;28;20254;-67
2023/05/03 08:30:21;;;;;;;7.23;2.50;;;10.40;1.00;;;;;;5071744;28;20228;-67
2023/05/03 08:32:50;;;;;;;8.03;2.37;;;10.60;1.00;;;;;;5074035;28;20259;-68
2023/05/03 08:35:16;;;;;;;3.47;2.00;;;10.80;1.00;;;;;;5073888;28;20418;-67
2023/05/03 08:37:42;;;;;;;2.07;1.93;;;11.00;1.00;;;;;;5073976;28;20491;-67
2023/05/03 08:40:13;;;;;;;5.30;2.40;;;11.10;1.00;;;;;;5073114;28;20151;-66
2023/05/03 08:42:46;;;;;;;2.80;1.63;;;11.10;1.00;;;;;;5073481;28;20456;-67
2023/05/03 08:45:15;;;;;;;3.20;2.10;;;11.20;1.00;;;;;;5055416;28;20414;-68
2023/05/03 08:47:43;;;;;;;7.33;2.30;;;11.20;1.00;;;;;;5075042;28;20375;-67
2023/05/03 08:50:10;;;;;;;5.53;2.23;;;11.20;1.00;;;;;;5072777;28;20920;-67
2023/05/03 08:52:41;;;;;;;8.00;2.43;;;11.00;1.00;;;;;;5072498;28;20880;-66
2023/05/03 08:55:08;;;;;;;7.80;2.40;;;11.00;1.00;;;;;;5074519;28;20498;-65
2023/05/03 08:57:34;;;;;;;3.20;2.27;;;10.80;1.00;;;;;;5073348;28;20559;-67
2023/05/03 09:00:00;;;;;;;3.30;2.47;;;10.70;1.00;;;;;;5073199;28;20401;-68
2023/05/03 09:02:27;;;;;;;7.63;2.43;;;10.60;99.90;;;;;;5070606;28;20426;-68
2023/05/03 09:04:53;;;;;;;6.03;3.83;;;10.70;1.00;;;;;;5073132;28;20479;-67
2023/05/03 09:07:19;;;;;;;7.73;2.00;;;10.70;1.00;;;;;;5073726;28;20782;-66
2023/05/03 09:09:48;;;;;;;1.83;1.73;;;10.70;1.00;;;;;;5073480;28;20401;-66
2023/05/03 09:12:34;;;;;;;3.70;2.60;;;10.70;1.00;;;;;;5072977;28;20196;-67
2023/05/03 09:15:01;;;;;;;2.70;1.83;;;10.80;1.00;;;;;;5073506;28;20386;-70
2023/05/03 09:17:27;;;;;;;4.60;2.20;;;10.90;1.00;;;;;;5071969;28;20434;-67
2023/05/03 09:19:57;;;;;;;3.13;2.40;;;11.00;1.00;;;;;;5072801;28;20384;-67
2023/05/03 09:22:33;;;;;;;6.03;2.07;;;10.90;1.00;;;;;;5072659;28;20189;-66
2023/05/03 09:25:00;;;;;;;3.20;2.10;;;11.00;1.00;;;;;;5073542;28;20404;-67
2023/05/03 09:27:27;;;;;;;3.10;2.40;;;11.10;1.00;;;;;;5073473;28;20466;-68
2023/05/03 09:29:53;;;;;;;4.63;1.63;;;11.10;1.00;;;;;;5073207;28;20409;-66
2023/05/03 09:32:21;;;;;;;4.87;2.40;;;11.20;1.00;;;;;;5071651;28;20505;-66
2023/05/03 09:34:50;;;;;;;3.40;2.70;;;11.30;1.00;;;;;;5073395;28;20457;-67
2023/05/03 09:37:16;;;;;;;3.93;2.40;;;11.50;1.00;;;;;;5072463;28;20503;-67
2023/05/03 09:39:44;;;;;;;5.73;2.47;;;11.60;1.00;;;;;;5072831;28;20427;-68
2023/05/03 09:42:17;;;;;;;7.03;3.20;;;11.70;1.00;;;;;;5075323;28;20434;-67
2023/05/03 09:44:52;;;;;;;3.90;2.00;;;11.80;1.00;;;;;;5076558;28;20439;-68
2023/05/03 09:47:19;;;;;;;5.70;2.57;;;12.00;1.00;;;;;;5077191;28;20911;-68
2023/05/03 09:49:44;;;;;;;4.97;2.40;;;12.00;1.00;;;;;;5077144;28;20426;-65
2023/05/03 09:52:11;;;;;;;4.33;2.27;;;12.10;1.00;;;;;;5076229;28;20426;-67
2023/05/03 09:54:37;;;;;;;3.50;2.93;;;12.00;99.90;;;;;;5076432;28;20193;-66
2023/05/03 09:57:05;;;;;;;5.43;1.90;;;12.10;99.90;;;;;;5076383;28;20448;-67
2023/05/03 09:59:38;;;;;;;4.13;2.07;;;12.20;99.90;;;;;;5076592;28;20519;-66
2023/05/03 10:02:06;;;;;;;6.93;2.00;;;12.40;99.90;;;;;;5075865;28;20376;-67
2023/05/03 10:04:50;;;;;;;10.20;2.50;;;12.40;99.90;;;;;;5076834;28;20409;-67
2023/05/03 10:07:17;;;;;;;6.97;2.53;;;12.30;99.90;;;;;;5077062;28;20463;-67
2023/05/03 10:09:47;;;;;;;6.90;2.50;;;12.30;99.90;;;;;;5076490;28;20414;-66
2023/05/03 10:13:17;;;;;;;5.03;2.47;;;12.30;99.90;;;;;;5074692;28;20474;-67
2023/05/03 10:15:21;;;;;;;2.80;2.50;;;12.40;99.90;;;;;;5061345;28;20431;-67
2023/05/03 10:17:50;;;;;;;5.30;2.73;;;12.50;99.90;;;;;;5076384;28;20535;-67
2023/05/03 10:20:34;;;;;;;8.30;2.63;;;12.30;99.90;;;;;;5075545;28;20383;-67
2023/05/03 10:23:03;;;;;;;4.53;2.97;;;12.10;99.90;;;;;;5076417;28;20490;-67
2023/05/03 10:25:30;;;;;;;9.30;2.67;;;12.10;99.90;;;;;;5076626;28;20404;-68
2023/05/03 10:28:03;;;;;;;4.00;2.43;;;12.00;99.90;;;;;;5075947;28;20431;-66
2023/05/03 10:30:31;;;;;;;2.50;2.30;;;12.20;99.90;;;;;;5074462;28;20424;-66
2023/05/03 10:32:58;;;;;;;3.23;2.60;;;12.20;99.90;;;;;;5076135;28;20424;-67
2023/05/03 10:35:28;;;;;;;5.00;2.50;;;12.40;99.90;;;;;;5057783;28;20817;-67
2023/05/03 10:37:58;;;;;;;10.83;2.50;;;12.30;99.90;;;;;;5076202;28;20417;-67
2023/05/03 10:40:41;;;;;;;3.87;2.30;;;12.40;99.90;;;;;;5068935;28;20473;-68
2023/05/03 10:43:32;;;;;;;21.83;2.47;;;12.50;99.90;;;;;;5075067;28;20448;-66
2023/05/03 10:46:05;;;;;;;3.90;2.23;;;12.70;99.90;;;;;;5071224;28;20414;-66
2023/05/03 10:48:45;;;;;;;6.17;2.53;;;12.60;99.90;;;;;;5056642;28;20420;-66
2023/05/03 10:55:31;;;;;;;;;;;;;;;;;;;;;
2023/05/03 10:57:58;;;;;;;3.43;2.30;;;12.60;99.90;;;;;;5014647;28;20405;-66
2023/05/03 11:00:59;;;;;;;4.63;2.60;;;12.60;99.90;;;;;;5047217;28;20476;-67
2023/05/03 11:07:24;;;;;;;6.87;3.00;;;12.60;99.90;;;;;;5056089;28;20506;-67
2023/05/03 11:10:29;;;;;;;4.63;3.20;;;12.50;99.90;;;;;;5060976;28;20413;-66
2023/05/03 11:12:55;;;;;;;13.53;3.80;;;12.40;99.90;;;;;;5074911;28;20446;-67
2023/05/03 11:15:21;;;;;;;9.60;2.50;;;12.20;99.90;;;;;;5057897;28;20417;-67
2023/05/03 11:17:46;;;;;;;4.47;3.00;;;12.20;99.90;;;;;;5055793;28;20213;-67
2023/05/03 11:20:18;;;;;;;4.80;2.57;;;12.10;99.90;;;;;;5054887;28;20237;-67
2023/05/03 11:26:13;;;;;;;2.80;2.47;;;12.10;99.90;;;;;;5074695;28;20435;-66
2023/05/03 11:29:36;;;;;;;2.83;2.47;;;12.20;99.90;;;;;;5074997;28;20490;-67
2023/05/03 11:32:03;;;;;;;3.07;2.50;;;12.20;99.90;;;;;;5073282;28;20440;-67
2023/05/03 11:34:30;;;;;;;7.00;2.47;;;12.30;99.90;;;;;;5066967;28;20421;-70
2023/05/03 11:36:57;;;;;;;2.90;2.70;;;12.30;99.90;;;;;;5053695;28;21038;-71
2023/05/03 11:39:26;;;;;;;10.90;3.20;;;12.30;99.90;;;;;;5060895;28;20747;-66
2023/05/03 11:42:06;;;;;;;4.90;2.67;;;12.30;99.90;;;;;;5074086;28;20955;-67
2023/05/03 11:44:31;;;;;;;7.80;3.13;;;12.50;99.90;;;;;;5074916;28;20371;-66
2023/05/03 11:46:58;;;;;;;4.50;3.00;;;12.60;99.90;;;;;;5074862;28;20901;-67
2023/05/03 11:49:27;;;;;;;2.63;2.30;;;12.80;99.90;;;;;;5074799;28;20635;-70
2023/05/03 11:51:55;;;;;;;4.53;2.87;;;13.30;99.90;;;;;;5072913;28;20408;-69
2023/05/03 11:54:22;;;;;;;5.03;2.93;;;13.60;99.90;;;;;;5054441;28;20414;-71
2023/05/03 11:57:00;;;;;;;;;;;;;;;;;;;;;
2023/05/03 11:59:37;;;;;;;7.03;2.83;;;13.10;99.90;;;;;;5054094;28;20403;-66
2023/05/03 12:02:14;;;;;;;7.17;2.63;;;13.10;99.90;;;;;;5053407;28;20429;-68
2023/05/03 12:04:42;;;;;;;5.20;2.50;;;13.10;99.90;;;;;;5052181;28;20423;-70
2023/05/03 12:07:37;;;;;;;3.07;2.53;;;13.10;99.90;;;;;;5073612;28;20494;-70
2023/05/03 12:10:15;;;;;;;4.77;2.90;;;13.10;99.90;;;;;;5045277;28;20440;-70
2023/05/03 12:12:58;;;;;;;5.00;2.60;;;13.00;99.90;;;;;;5073894;28;20484;-68
2023/05/03 12:15:38;;;;;;;2.77;2.57;;;13.00;99.90;;;;;;5074634;28;20412;-70
2023/05/03 12:18:13;;;;;;;4.60;2.80;;;13.00;99.90;;;;;;5074209;28;20403;-68
2023/05/03 12:20:40;;;;;;;5.47;2.80;;;13.00;99.90;;;;;;5073003;28;20423;-69
2023/05/03 12:23:07;;;;;;;7.27;3.60;;;13.00;99.90;;;;;;5073611;28;21026;-67
2023/05/03 12:25:35;;;;;;;2.63;2.40;;;13.00;99.90;;;;;;5074220;28;20400;-69
2023/05/03 12:28:05;;;;;;;3.47;2.53;;;12.80;99.90;;;;;;5073995;28;20415;-67
2023/05/03 12:30:32;;;;;;;3.40;3.10;;;12.90;99.90;;;;;;5073194;28;20408;-70
2023/05/03 12:32:59;;;;;;;5.80;2.30;;;12.90;99.90;;;;;;5072891;28;20429;-69
2023/05/03 12:35:25;;;;;;;3.60;2.10;;;12.90;99.90;;;;;;5074011;28;20408;-70
2023/05/03 12:37:51;;;;;;;3.80;2.20;;;12.90;99.90;;;;;;5055265;28;20484;-70
2023/05/03 12:40:23;;;;;;;8.50;2.67;;;12.80;99.90;;;;;;5073664;28;20428;-69
2023/05/03 12:42:49;;;;;;;2.67;2.33;;;12.70;99.90;;;;;;5073082;28;20218;-67
2023/05/03 12:45:15;;;;;;;6.33;3.17;;;12.70;99.90;;;;;;5073681;28;20399;-68
2023/05/03 12:47:41;;;;;;;4.10;2.90;;;12.80;99.90;;;;;;5073766;28;20415;-67
2023/05/03 12:50:08;;;;;;;14.97;4.00;;;12.80;99.90;;;;;;5072377;28;20165;-67
2023/05/03 12:52:35;;;;;;;5.30;2.67;;;12.70;99.90;;;;;;5072413;28;20452;-69
2023/05/03 12:55:03;;;;;;;8.00;3.20;;;12.60;99.90;;;;;;5074669;28;20435;-70
2023/05/03 12:57:29;;;;;;;3.40;3.10;;;12.60;99.90;;;;;;5073552;28;20423;-70
2023/05/03 12:59:55;;;;;;;3.33;2.60;;;12.70;99.90;;;;;;5073423;28;20871;-69
2023/05/03 13:02:22;;;;;;;4.33;2.77;;;12.80;99.90;;;;;;5072653;28;20417;-69
2023/05/03 13:04:59;;;;;;;;;;;;;;;;;;;;;
2023/05/03 13:07:29;;;;;;;4.47;2.73;;;12.60;99.90;;;;;;5072834;28;20404;-70
2023/05/03 13:09:56;;;;;;;3.10;2.43;;;12.60;99.90;;;;;;5073035;28;20455;-69
2023/05/03 13:12:24;;;;;;;4.17;3.20;;;12.70;99.90;;;;;;5072475;28;20485;-67
2023/05/03 13:14:52;;;;;;;3.77;2.70;;;12.70;99.90;;;;;;5073235;28;20449;-67
2023/05/03 13:17:22;;;;;;;3.87;3.23;;;12.80;99.90;;;;;;5073004;28;20501;-69
2023/05/03 13:19:52;;;;;;;4.80;3.23;;;12.70;99.90;;;;;;5073291;28;20534;-68